createdAt,value
2022-08-09T00:00:31.965Z,102636.84
2022-08-09T00:01:10.717Z,102634.72
2022-08-09T00:01:54.711Z,102629.69
2022-08-09T00:02:27.281Z,102648.59
2022-08-09T00:02:58.981Z,102635.69
2022-08-09T00:04:05.730Z,102634.22
2022-08-09T00:04:34.503Z,102633.41
2022-08-09T00:06:15.620Z,102635.38
2022-08-09T00:06:19.253Z,102639.81
2022-08-09T00:06:50.838Z,102633.47
2022-08-09T00:07:24.662Z,102641.13
2022-08-09T00:08:01.604Z,102634.47
2022-08-09T00:08:33.261Z,102631.88
2022-08-09T00:09:05.468Z,102634.56
2022-08-09T00:09:37.163Z,102637.16
2022-08-09T00:10:09.204Z,102635.25
2022-08-09T00:10:48.933Z,102641.50
2022-08-09T00:11:24.449Z,102637.63
2022-08-09T00:12:03.559Z,102633.97
2022-08-09T00:12:36.093Z,102635.44
2022-08-09T00:13:16.889Z,102635.88
2022-08-09T00:13:50.786Z,102638.19
2022-08-09T00:14:36.425Z,102637.09
2022-08-09T00:15:14.674Z,102645.31
2022-08-09T00:15:59.317Z,102634.63
2022-08-09T00:16:36.748Z,102646.22
2022-08-09T00:17:10.178Z,102637.78
2022-08-09T00:18:05.734Z,102638.06
2022-08-09T00:18:43.619Z,102645.81
2022-08-09T00:19:18.500Z,102639.53
2022-08-09T00:19:50.269Z,102633.97
2022-08-09T00:20:23.625Z,102641.50
2022-08-09T00:20:55.310Z,102640.84
2022-08-09T00:21:27.377Z,102642.13
2022-08-09T00:22:00.260Z,102634.75
2022-08-09T00:22:36.327Z,102641.22
2022-08-09T00:23:54.053Z,102638.25
2022-08-09T00:23:59.983Z,102636.59
2022-08-09T00:24:32.577Z,102634.94
2022-08-09T00:25:09.993Z,102633.28
2022-08-09T00:25:44.429Z,102627.91
2022-08-09T00:26:29.861Z,102635.50
2022-08-09T00:27:04.807Z,102634.78
2022-08-09T00:27:36.632Z,102630.72
2022-08-09T00:28:15.025Z,102628.69
2022-08-09T00:28:52.222Z,102631.75
2022-08-09T00:29:39.434Z,102627.03
2022-08-09T00:30:25.512Z,102625.81
2022-08-09T00:30:58.428Z,102631.44
2022-08-09T00:31:58.495Z,102630.50
2022-08-09T00:32:26.871Z,102636.41
2022-08-09T00:33:00.796Z,102636.00
2022-08-09T00:33:50.657Z,102635.25
2022-08-09T00:34:23.439Z,102633.16
2022-08-09T00:34:58.763Z,102642.25
2022-08-09T00:35:42.779Z,102636.16
2022-08-09T00:36:15.159Z,102634.13
2022-08-09T00:36:48.992Z,102641.22
2022-08-09T00:37:20.721Z,102641.88
2022-08-09T00:37:52.308Z,102639.78
2022-08-09T00:38:25.837Z,102645.38
2022-08-09T00:38:58.764Z,102640.59
2022-08-09T00:40:13.836Z,102642.63
2022-08-09T00:40:22.468Z,102636.00
2022-08-09T00:41:01.941Z,102635.19
2022-08-09T00:44:09.934Z,102634.84
2022-08-09T00:44:10.714Z,102641.81
2022-08-09T00:44:15.931Z,102625.69
2022-08-09T00:44:26.785Z,102633.19
2022-08-09T00:44:59.394Z,102634.84
2022-08-09T00:45:35.580Z,102634.22
2022-08-09T00:46:09.455Z,102641.44
2022-08-09T00:46:57.292Z,102626.56
2022-08-09T00:47:35.978Z,102635.88
2022-08-09T00:48:15.302Z,102633.84
2022-08-09T00:48:50.966Z,102636.50
2022-08-09T00:49:28.100Z,102636.25
2022-08-09T00:49:59.805Z,102633.72
2022-08-09T00:50:32.987Z,102636.78
2022-08-09T00:51:11.905Z,102640.09
2022-08-09T00:51:55.867Z,102640.09
2022-08-09T00:52:30.465Z,102646.22
2022-08-09T00:53:10.242Z,102642.13
2022-08-09T00:53:43.969Z,102639.25
2022-08-09T00:54:18.242Z,102641.38
2022-08-09T00:54:51.354Z,102646.47
2022-08-09T00:55:32.734Z,102646.56
2022-08-09T00:56:16.898Z,102642.22
2022-08-09T00:56:48.471Z,102646.56
2022-08-09T00:57:33.574Z,102642.50
2022-08-09T00:58:06.004Z,102641.22
2022-08-09T00:58:40.707Z,102646.00
2022-08-09T00:59:12.285Z,102642.69
2022-08-09T00:59:52.594Z,102639.91
2022-08-09T01:00:24.577Z,102643.22
2022-08-09T01:00:57.012Z,102640.16
2022-08-09T01:01:44.853Z,102638.47
2022-08-09T01:02:28.429Z,102641.03
2022-08-09T01:03:16.263Z,102644.72
2022-08-09T01:03:56.789Z,102642.69
2022-08-09T01:04:32.532Z,102646.78
2022-08-09T01:05:14.056Z,102641.41
2022-08-09T01:06:17.895Z,102635.44
2022-08-09T01:06:58.790Z,102644.22
2022-08-09T01:08:01.096Z,102643.06
2022-08-09T01:08:59.754Z,102638.63
2022-08-09T01:09:59.783Z,102645.38
2022-08-09T01:11:00.929Z,102645.00
2022-08-09T01:12:05.040Z,102643.47
2022-08-09T01:12:46.774Z,102648.16
2022-08-09T01:13:41.862Z,102654.41
2022-08-09T01:14:41.421Z,102650.09
2022-08-09T01:15:17.803Z,102652.56
2022-08-09T01:15:53.017Z,102655.06
2022-08-09T01:16:30.936Z,102652.19
2022-08-09T01:17:10.811Z,102652.63
2022-08-09T01:18:03.699Z,102648.34
2022-08-09T01:18:37.562Z,102651.28
2022-08-09T01:20:01.457Z,102653.41
2022-08-09T01:20:50.343Z,102652.75
2022-08-09T01:21:50.958Z,102649.63
2022-08-09T01:22:51.240Z,102653.72
2022-08-09T01:24:02.775Z,102653.97
2022-08-09T01:24:52.281Z,102651.59
2022-08-09T01:25:51.562Z,102655.28
2022-08-09T01:26:54.633Z,102654.34
2022-08-09T01:27:27.682Z,102651.59
2022-08-09T01:28:01.640Z,102654.47
2022-08-09T01:28:38.148Z,102649.28
2022-08-09T01:29:13.008Z,102651.13
2022-08-09T01:29:56.620Z,102649.94
2022-08-09T01:30:35.474Z,102649.13
2022-08-09T01:32:29.163Z,102654.34
2022-08-09T01:32:32.467Z,102653.19
2022-08-09T01:33:09.995Z,102653.81
2022-08-09T01:33:45.350Z,102653.44
2022-08-09T01:34:18.886Z,102648.84
2022-08-09T01:34:53.919Z,102643.31
2022-08-09T01:35:38.493Z,102647.72
2022-08-09T01:36:15.621Z,102648.59
2022-08-09T01:36:49.056Z,102640.66
2022-08-09T01:37:21.692Z,102642.59
2022-08-09T01:38:19.189Z,102643.50
2022-08-09T01:38:51.388Z,102646.81
2022-08-09T01:39:25.101Z,102647.25
2022-08-09T01:40:01.007Z,102647.00
2022-08-09T01:40:36.135Z,102648.13
2022-08-09T01:41:13.737Z,102643.97
2022-08-09T01:41:53.668Z,102652.19
2022-08-09T01:42:32.877Z,102646.63
2022-08-09T01:43:07.599Z,102648.66
2022-08-09T01:43:51.042Z,102651.59
2022-08-09T01:44:23.934Z,102644.41
2022-08-09T01:44:56.751Z,102655.19
2022-08-09T01:45:31.606Z,102647.19
2022-08-09T01:46:03.649Z,102641.94
2022-08-09T01:46:38.609Z,102642.63
2022-08-09T01:47:11.939Z,102635.34
2022-08-09T01:47:44.844Z,102640.13
2022-08-09T01:48:19.260Z,102637.91
2022-08-09T01:49:09.468Z,102640.41
2022-08-09T01:49:48.815Z,102640.97
2022-08-09T01:50:37.028Z,102637.91
2022-08-09T01:51:14.219Z,102634.97
2022-08-09T01:51:57.012Z,102637.47
2022-08-09T01:52:29.946Z,102641.25
2022-08-09T01:53:02.451Z,102640.22
2022-08-09T01:53:53.782Z,102634.47
2022-08-09T01:54:42.579Z,102640.19
2022-08-09T01:55:15.744Z,102645.34
2022-08-09T01:55:47.831Z,102638.78
2022-08-09T01:56:19.900Z,102632.25
2022-08-09T01:56:52.576Z,102641.28
2022-08-09T01:57:29.041Z,102642.41
2022-08-09T01:58:02.126Z,102645.16
2022-08-09T01:58:36.871Z,102644.16
2022-08-09T01:59:16.111Z,102643.16
2022-08-09T01:59:51.420Z,102643.59
2022-08-09T02:00:35.782Z,102651.81
2022-08-09T02:01:08.297Z,102647.75
2022-08-09T02:01:59.555Z,102646.84
2022-08-09T02:02:35.508Z,102650.16
2022-08-09T02:03:07.991Z,102645.53
2022-08-09T02:03:46.494Z,102642.88
2022-08-09T02:04:21.082Z,102650.88
2022-08-09T02:04:54.840Z,102648.84
2022-08-09T02:05:37.804Z,102650.97
2022-08-09T02:06:10.395Z,102647.94
2022-08-09T02:07:02.585Z,102649.41
2022-08-09T02:08:39.062Z,102659.38
2022-08-09T02:08:39.387Z,102649.78
2022-08-09T02:09:22.736Z,102656.28
2022-08-09T02:09:59.825Z,102656.94
2022-08-09T02:10:37.791Z,102656.03
2022-08-09T02:11:17.188Z,102658.41
2022-08-09T02:11:49.202Z,102658.03
2022-08-09T02:12:22.606Z,102651.69
2022-08-09T02:12:56.127Z,102657.31
2022-08-09T02:13:40.236Z,102652.53
2022-08-09T02:14:14.958Z,102655.38
2022-08-09T02:14:51.686Z,102653.44
2022-08-09T02:15:24.563Z,102651.22
2022-08-09T02:16:09.852Z,102650.03
2022-08-09T02:16:59.812Z,102653.16
2022-08-09T02:18:00.127Z,102652.69
2022-08-09T02:18:28.600Z,102660.91
2022-08-09T02:19:00.378Z,102653.53
2022-08-09T02:19:34.967Z,102656.84
2022-08-09T02:20:12.181Z,102657.50
2022-08-09T02:20:51.752Z,102660.22
2022-08-09T02:21:24.427Z,102653.00
2022-08-09T02:22:04.693Z,102658.47
2022-08-09T02:22:48.723Z,102656.91
2022-08-09T02:23:43.223Z,102667.84
2022-08-09T02:24:26.438Z,102648.03
2022-08-09T02:25:00.634Z,102657.06
2022-08-09T02:25:42.562Z,102655.41
2022-08-09T02:26:24.860Z,102654.38
2022-08-09T02:27:02.400Z,102649.34
2022-08-09T02:27:57.425Z,102657.78
2022-08-09T02:28:34.761Z,102658.91
2022-08-09T02:29:17.327Z,102649.22
2022-08-09T02:29:52.344Z,102647.75
2022-08-09T02:30:26.356Z,102651.72
2022-08-09T02:31:21.897Z,102648.78
2022-08-09T02:31:59.753Z,102649.25
2022-08-09T02:32:33.191Z,102646.88
2022-08-09T02:33:07.858Z,102655.38
2022-08-09T02:34:07.061Z,102652.16
2022-08-09T02:34:41.365Z,102656.53
2022-08-09T02:36:01.426Z,102655.84
2022-08-09T02:36:21.032Z,102652.44
2022-08-09T02:36:54.996Z,102651.78
2022-08-09T02:37:31.832Z,102653.91
2022-08-09T02:38:05.002Z,102653.53
2022-08-09T02:38:47.671Z,102652.97
2022-08-09T02:39:33.776Z,102650.94
2022-08-09T02:40:15.037Z,102654.94
2022-08-09T02:41:02.602Z,102656.94
2022-08-09T02:41:50.881Z,102656.38
2022-08-09T02:42:28.909Z,102643.75
2022-08-09T02:43:01.715Z,102649.75
2022-08-09T02:43:53.982Z,102642.03
2022-08-09T02:44:29.519Z,102640.34
2022-08-09T02:45:06.661Z,102651.56
2022-08-09T02:45:42.786Z,102643.34
2022-08-09T02:46:17.474Z,102645.66
2022-08-09T02:46:52.652Z,102640.41
2022-08-09T02:47:24.788Z,102638.84
2022-08-09T02:48:04.083Z,102638.16
2022-08-09T02:48:36.719Z,102640.63
2022-08-09T02:49:11.429Z,102639.44
2022-08-09T02:50:02.852Z,102641.47
2022-08-09T02:50:55.825Z,102639.44
2022-08-09T02:51:33.025Z,102637.22
2022-08-09T02:52:13.634Z,102639.91
2022-08-09T02:52:55.114Z,102642.38
2022-08-09T02:53:34.216Z,102642.84
2022-08-09T02:54:06.664Z,102641.66
2022-08-09T02:54:54.719Z,102648.47
2022-08-09T02:55:46.682Z,102639.91
2022-08-09T02:56:22.975Z,102640.16
2022-08-09T02:56:57.016Z,102639.13
2022-08-09T02:57:59.712Z,102634.78
2022-08-09T02:58:35.517Z,102639.38
2022-08-09T02:59:12.851Z,102637.63
2022-08-09T03:00:25.307Z,102643.63
2022-08-09T03:00:58.421Z,102637.81
2022-08-09T03:01:58.637Z,102634.50
2022-08-09T03:02:24.758Z,102640.69
2022-08-09T03:02:59.673Z,102641.31
2022-08-09T03:03:37.329Z,102635.97
2022-08-09T03:04:26.216Z,102636.25
2022-08-09T03:05:01.099Z,102637.56
2022-08-09T03:05:34.469Z,102632.22
2022-08-09T03:06:07.399Z,102630.56
2022-08-09T03:06:40.793Z,102631.84
2022-08-09T03:07:13.837Z,102631.84
2022-08-09T03:07:54.936Z,102634.59
2022-08-09T03:08:27.774Z,102633.22
2022-08-09T03:09:00.479Z,102630.47
2022-08-09T03:09:33.585Z,102632.94
2022-08-09T03:10:06.757Z,102639.03
2022-08-09T03:10:39.732Z,102631.28
2022-08-09T03:11:29.647Z,102632.94
2022-08-09T03:12:10.958Z,102633.69
2022-08-09T03:12:49.446Z,102632.84
2022-08-09T03:13:25.121Z,102634.41
2022-08-09T03:14:16.041Z,102631.09
2022-08-09T03:14:48.363Z,102639.22
2022-08-09T03:15:22.806Z,102635.44
2022-08-09T03:16:06.411Z,102634.59
2022-08-09T03:16:45.339Z,102633.75
2022-08-09T03:17:26.622Z,102632.75
2022-08-09T03:17:59.146Z,102635.78
2022-08-09T03:18:31.606Z,102629.44
2022-08-09T03:19:03.401Z,102635.78
2022-08-09T03:19:52.198Z,102629.22
2022-08-09T03:20:30.568Z,102631.63
2022-08-09T03:21:03.021Z,102626.03
2022-08-09T03:21:36.405Z,102626.31
2022-08-09T03:22:12.202Z,102632.63
2022-08-09T03:22:58.416Z,102623.94
2022-08-09T03:24:03.538Z,102618.13
2022-08-09T03:24:42.379Z,102625.38
2022-08-09T03:25:26.446Z,102624.06
2022-08-09T03:26:17.053Z,102616.72
2022-08-09T03:26:48.875Z,102621.34
2022-08-09T03:27:25.743Z,102615.78
2022-08-09T03:27:58.125Z,102622.94
2022-08-09T03:28:31.122Z,102618.09
2022-08-09T03:29:02.805Z,102614.41
2022-08-09T03:29:58.121Z,102625.91
2022-08-09T03:30:34.491Z,102620.09
2022-08-09T03:31:21.395Z,102620.28
2022-08-09T03:32:00.045Z,102610.44
2022-08-09T03:32:34.786Z,102612.56
2022-08-09T03:33:17.796Z,102615.16
2022-08-09T03:33:54.888Z,102615.34
2022-08-09T03:34:28.309Z,102614.44
2022-08-09T03:35:00.565Z,102614.91
2022-08-09T03:36:11.206Z,102616.91
2022-08-09T03:36:27.510Z,102611.38
2022-08-09T03:37:10.740Z,102613.41
2022-08-09T03:37:55.520Z,102617.53
2022-08-09T03:38:30.909Z,102612.84
2022-08-09T03:39:04.030Z,102613.50
2022-08-09T03:39:37.551Z,102613.97
2022-08-09T03:40:13.047Z,102615.28
2022-08-09T03:40:44.920Z,102615.91
2022-08-09T03:41:18.301Z,102621.41
2022-08-09T03:41:50.058Z,102620.88
2022-08-09T03:42:37.874Z,102619.69
2022-08-09T03:43:09.704Z,102621.53
2022-08-09T03:44:03.078Z,102624.56
2022-08-09T03:44:36.422Z,102622.38
2022-08-09T03:45:08.822Z,102631.56
2022-08-09T03:46:03.981Z,102629.53
2022-08-09T03:46:32.533Z,102634.13
2022-08-09T03:47:04.295Z,102628.78
2022-08-09T03:47:41.881Z,102634.41
2022-08-09T03:48:18.783Z,102635.22
2022-08-09T03:48:54.239Z,102634.56
2022-08-09T03:49:32.869Z,102632.56
2022-08-09T03:50:09.441Z,102631.53
2022-08-09T03:50:42.584Z,102630.72
2022-08-09T03:51:57.171Z,102632.84
2022-08-09T03:52:07.337Z,102630.81
2022-08-09T03:52:42.409Z,102628.44
2022-08-09T03:53:15.001Z,102635.78
2022-08-09T03:53:47.125Z,102626.56
2022-08-09T03:54:29.354Z,102621.59
2022-08-09T03:55:09.613Z,102624.44
2022-08-09T03:55:42.573Z,102626.56
2022-08-09T03:56:14.653Z,102629.16
2022-08-09T03:56:46.792Z,102630.81
2022-08-09T03:57:20.803Z,102635.31
2022-08-09T03:58:03.323Z,102638.66
2022-08-09T03:58:38.174Z,102634.03
2022-08-09T03:59:17.369Z,102633.19
2022-08-09T03:59:56.051Z,102631.19
2022-08-09T04:00:32.296Z,102637.81
2022-08-09T04:01:04.003Z,102641.84
2022-08-09T04:01:37.396Z,102643.41
2022-08-09T04:02:11.262Z,102638.91
2022-08-09T04:02:46.516Z,102641.03
2022-08-09T04:03:45.922Z,102635.50
2022-08-09T04:04:17.091Z,102633.19
2022-08-09T04:04:49.606Z,102628.88
2022-08-09T04:05:27.690Z,102632.25
2022-08-09T04:05:59.699Z,102631.75
2022-08-09T04:06:31.512Z,102631.66
2022-08-09T04:07:03.874Z,102632.84
2022-08-09T04:07:52.640Z,102635.50
2022-08-09T04:08:28.935Z,102631.28
2022-08-09T04:09:41.510Z,102630.09
2022-08-09T04:09:58.035Z,102626.31
2022-08-09T04:10:30.439Z,102632.94
2022-08-09T04:11:02.226Z,102633.28
2022-08-09T04:11:51.572Z,102631.00
2022-08-09T04:12:45.344Z,102626.50
2022-08-09T04:13:18.515Z,102630.94
2022-08-09T04:14:53.871Z,102632.94
2022-08-09T04:15:00.474Z,102630.59
2022-08-09T04:15:51.992Z,102637.47
2022-08-09T04:16:25.341Z,102631.00
2022-08-09T04:16:57.418Z,102631.66
2022-08-09T04:17:29.620Z,102630.94
2022-08-09T04:18:01.442Z,102637.00
2022-08-09T04:18:32.959Z,102635.31
2022-08-09T04:19:05.092Z,102632.31
2022-08-09T04:19:51.183Z,102634.03
2022-08-09T04:20:27.791Z,102631.66
2022-08-09T04:21:00.671Z,102635.81
2022-08-09T04:21:38.430Z,102634.03
2022-08-09T04:22:13.098Z,102633.31
2022-08-09T04:22:45.896Z,102636.50
2022-08-09T04:23:17.832Z,102637.34
2022-08-09T04:23:57.720Z,102633.66
2022-08-09T04:24:30.104Z,102639.94
2022-08-09T04:25:06.401Z,102636.81
2022-08-09T04:25:42.971Z,102635.31
2022-08-09T04:26:14.486Z,102638.94
2022-08-09T04:26:46.470Z,102636.59
2022-08-09T04:27:22.062Z,102633.56
2022-08-09T04:27:54.057Z,102636.88
2022-08-09T04:28:35.883Z,102644.59
2022-08-09T04:29:12.147Z,102643.22
2022-08-09T04:29:49.840Z,102647.19
2022-08-09T04:30:23.392Z,102649.03
2022-08-09T04:30:55.110Z,102649.56
2022-08-09T04:31:37.447Z,102643.75
2022-08-09T04:32:23.685Z,102646.25
2022-08-09T04:33:09.223Z,102652.91
2022-08-09T04:33:52.132Z,102650.22
2022-08-09T04:34:31.810Z,102652.63
2022-08-09T04:35:04.923Z,102655.25
2022-08-09T04:35:42.445Z,102654.09
2022-08-09T04:36:14.276Z,102652.44
2022-08-09T04:36:50.988Z,102656.59
2022-08-09T04:37:24.191Z,102662.03
2022-08-09T04:38:15.887Z,102662.03
2022-08-09T04:38:50.212Z,102664.34
2022-08-09T04:39:21.802Z,102656.13
2022-08-09T04:39:55.040Z,102653.75
2022-08-09T04:40:46.644Z,102661.38
2022-08-09T04:41:18.185Z,102657.16
2022-08-09T04:41:49.974Z,102655.31
2022-08-09T04:42:23.586Z,102659.56
2022-08-09T04:42:56.802Z,102663.25
2022-08-09T04:43:29.481Z,102659.50
2022-08-09T04:44:12.085Z,102656.84
2022-08-09T04:44:49.389Z,102665.25
2022-08-09T04:45:21.123Z,102664.78
2022-08-09T04:45:55.214Z,102661.75
2022-08-09T04:46:38.217Z,102664.59
2022-08-09T04:47:18.278Z,102671.16
2022-08-09T04:48:00.286Z,102670.03
2022-08-09T04:48:34.533Z,102669.47
2022-08-09T04:49:06.161Z,102673.16
2022-08-09T04:49:53.653Z,102670.50
2022-08-09T04:50:34.895Z,102671.91
2022-08-09T04:51:09.797Z,102671.78
2022-08-09T04:51:41.353Z,102669.94
2022-08-09T04:52:18.459Z,102670.41
2022-08-09T04:52:53.461Z,102668.75
2022-08-09T04:53:25.246Z,102659.69
2022-08-09T04:53:58.636Z,102672.44
2022-08-09T04:54:30.672Z,102673.72
2022-08-09T04:55:05.067Z,102666.44
2022-08-09T04:55:58.237Z,102675.22
2022-08-09T04:56:31.149Z,102670.78
2022-08-09T04:57:03.889Z,102669.84
2022-08-09T04:57:59.182Z,102680.66
2022-08-09T04:58:28.934Z,102676.59
2022-08-09T04:59:02.729Z,102682.03
2022-08-09T04:59:39.489Z,102685.63
2022-08-09T05:00:11.925Z,102679.28
2022-08-09T05:00:43.646Z,102680.94
2022-08-09T05:01:16.453Z,102675.31
2022-08-09T05:01:50.703Z,102681.31
2022-08-09T05:02:27.261Z,102676.88
2022-08-09T05:02:59.243Z,102680.75
2022-08-09T05:03:45.109Z,102681.84
2022-08-09T05:04:19.765Z,102685.53
2022-08-09T05:04:55.149Z,102679.44
2022-08-09T05:05:31.728Z,102685.16
2022-08-09T05:06:27.422Z,102687.56
2022-08-09T05:07:00.228Z,102688.94
2022-08-09T05:07:32.339Z,102686.19
2022-08-09T05:08:04.194Z,102675.28
2022-08-09T05:08:36.334Z,102687.28
2022-08-09T05:09:07.947Z,102682.56
2022-08-09T05:09:42.343Z,102688.44
2022-08-09T05:10:20.460Z,102685.31
2022-08-09T05:10:52.108Z,102677.56
2022-08-09T05:11:23.733Z,102680.03
2022-08-09T05:12:02.386Z,102684.69
2022-08-09T05:12:35.440Z,102684.50
2022-08-09T05:13:10.916Z,102692.00
2022-08-09T05:13:42.954Z,102685.22
2022-08-09T05:14:14.854Z,102683.63
2022-08-09T05:14:46.401Z,102682.44
2022-08-09T05:15:38.302Z,102685.75
2022-08-09T05:16:10.539Z,102690.13
2022-08-09T05:16:58.118Z,102689.59
2022-08-09T05:18:38.122Z,102686.13
2022-08-09T05:18:50.918Z,102690.72
2022-08-09T05:19:24.470Z,102687.00
2022-08-09T05:19:58.273Z,102692.16
2022-08-09T05:20:30.485Z,102688.91
2022-08-09T05:21:02.859Z,102686.22
2022-08-09T05:21:55.335Z,102688.31
2022-08-09T05:22:33.141Z,102686.75
2022-08-09T05:23:54.966Z,102683.69
2022-08-09T05:24:00.982Z,102685.72
2022-08-09T05:24:33.357Z,102681.25
2022-08-09T05:25:05.420Z,102691.38
2022-08-09T05:25:37.112Z,102683.53
2022-08-09T05:26:08.871Z,102684.56
2022-08-09T05:26:50.885Z,102690.16
2022-08-09T05:27:22.546Z,102684.59
2022-08-09T05:27:55.425Z,102694.09
2022-08-09T05:28:27.125Z,102688.72
2022-08-09T05:28:59.242Z,102690.38
2022-08-09T05:29:35.411Z,102692.25
2022-08-09T05:30:08.041Z,102686.69
2022-08-09T05:30:41.867Z,102691.69
2022-08-09T05:31:23.514Z,102691.88
2022-08-09T05:32:08.745Z,102695.00
2022-08-09T05:32:43.443Z,102694.59
2022-08-09T05:33:15.153Z,102692.56
2022-08-09T05:33:48.039Z,102700.41
2022-08-09T05:34:19.576Z,102690.09
2022-08-09T05:34:51.355Z,102697.75
2022-08-09T05:35:22.941Z,102690.09
2022-08-09T05:35:54.534Z,102700.44
2022-08-09T05:36:29.040Z,102703.31
2022-08-09T05:37:06.313Z,102692.66
2022-08-09T05:37:47.531Z,102700.94
2022-08-09T05:38:22.029Z,102698.66
2022-08-09T05:38:53.845Z,102694.75
2022-08-09T05:39:29.354Z,102698.72
2022-08-09T05:40:01.754Z,102698.50
2022-08-09T05:40:33.333Z,102694.41
2022-08-09T05:41:05.298Z,102699.38
2022-08-09T05:41:44.156Z,102699.41
2022-08-09T05:42:17.540Z,102697.38
2022-08-09T05:42:53.192Z,102697.22
2022-08-09T05:43:31.766Z,102701.59
2022-08-09T05:44:04.040Z,102694.19
2022-08-09T05:44:36.985Z,102702.09
2022-08-09T05:45:10.927Z,102702.09
2022-08-09T05:45:55.738Z,102706.44
2022-08-09T05:46:28.989Z,102707.06
2022-08-09T05:47:00.645Z,102703.34
2022-08-09T05:47:33.205Z,102707.28
2022-08-09T05:48:05.752Z,102705.84
2022-08-09T05:48:40.145Z,102708.34
2022-08-09T05:49:19.106Z,102703.84
2022-08-09T05:50:25.765Z,102709.63
2022-08-09T05:51:12.025Z,102702.28
2022-08-09T05:51:47.071Z,102708.28
2022-08-09T05:52:18.852Z,102700.56
2022-08-09T05:52:54.145Z,102708.03
2022-08-09T05:53:32.486Z,102703.78
2022-08-09T05:54:05.760Z,102702.31
2022-08-09T05:54:39.281Z,102708.75
2022-08-09T05:55:18.103Z,102708.75
2022-08-09T05:55:53.165Z,102710.56
2022-08-09T05:56:27.307Z,102711.47
2022-08-09T05:56:59.266Z,102710.00
2022-08-09T05:57:50.778Z,102710.56
2022-08-09T05:58:22.445Z,102708.94
2022-08-09T05:58:59.453Z,102695.47
2022-08-09T05:59:31.176Z,102702.63
2022-08-09T06:00:07.527Z,102699.94
2022-08-09T06:00:42.973Z,102696.56
2022-08-09T06:01:15.982Z,102698.25
2022-08-09T06:01:51.045Z,102700.75
2022-08-09T06:02:30.572Z,102695.59
2022-08-09T06:03:10.715Z,102696.31
2022-08-09T06:03:43.944Z,102694.38
2022-08-09T06:04:34.963Z,102689.50
2022-08-09T06:05:08.464Z,102688.44
2022-08-09T06:05:56.990Z,102696.34
2022-08-09T06:06:32.807Z,102693.47
2022-08-09T06:07:04.446Z,102689.69
2022-08-09T06:07:36.036Z,102694.41
2022-08-09T06:08:08.059Z,102697.03
2022-08-09T06:08:40.626Z,102686.81
2022-08-09T06:09:53.865Z,102697.16
2022-08-09T06:10:05.796Z,102689.94
2022-08-09T06:10:40.660Z,102691.69
2022-08-09T06:11:16.590Z,102696.34
2022-08-09T06:11:56.813Z,102694.19
2022-08-09T06:12:29.327Z,102696.22
2022-08-09T06:13:11.664Z,102693.13
2022-08-09T06:13:44.635Z,102691.22
2022-08-09T06:14:19.028Z,102695.09
2022-08-09T06:14:50.833Z,102694.28
2022-08-09T06:15:22.412Z,102693.38
2022-08-09T06:15:54.781Z,102691.81
2022-08-09T06:16:27.703Z,102692.19
2022-08-09T06:16:59.219Z,102690.91
2022-08-09T06:17:39.031Z,102689.16
2022-08-09T06:18:11.783Z,102693.41
2022-08-09T06:18:44.864Z,102704.41
2022-08-09T06:19:16.494Z,102691.94
2022-08-09T06:19:48.069Z,102694.41
2022-08-09T06:20:20.702Z,102692.53
2022-08-09T06:20:57.885Z,102691.47
2022-08-09T06:21:30.563Z,102695.63
2022-08-09T06:22:02.112Z,102689.31
2022-08-09T06:22:35.686Z,102695.31
2022-08-09T06:23:08.349Z,102684.94
2022-08-09T06:23:58.382Z,102701.34
2022-08-09T06:24:34.270Z,102690.97
2022-08-09T06:25:08.641Z,102689.34
2022-08-09T06:25:44.077Z,102692.63
2022-08-09T06:26:21.256Z,102692.03
2022-08-09T06:26:53.823Z,102686.84
2022-08-09T06:27:26.107Z,102699.16
2022-08-09T06:28:14.805Z,102695.13
2022-08-09T06:28:46.518Z,102698.66
2022-08-09T06:29:19.019Z,102701.38
2022-08-09T06:29:58.480Z,102703.84
2022-08-09T06:30:36.341Z,102698.06
2022-08-09T06:31:08.439Z,102696.47
2022-08-09T06:32:08.530Z,102701.06
2022-08-09T06:33:13.720Z,102705.09
2022-08-09T06:33:41.162Z,102700.22
2022-08-09T06:34:13.677Z,102700.69
2022-08-09T06:34:50.121Z,102700.06
2022-08-09T06:35:35.833Z,102700.19
2022-08-09T06:36:16.035Z,102710.94
2022-08-09T06:36:57.311Z,102699.38
2022-08-09T06:37:31.509Z,102699.09
2022-08-09T06:38:31.836Z,102698.25
2022-08-09T06:39:08.981Z,102707.16
2022-08-09T06:39:57.692Z,102704.88
2022-08-09T06:40:33.365Z,102704.03
2022-08-09T06:41:18.322Z,102708.69
2022-08-09T06:42:09.340Z,102704.06
2022-08-09T06:42:45.135Z,102701.59
2022-08-09T06:43:18.645Z,102709.44
2022-08-09T06:43:50.753Z,102710.13
2022-08-09T06:44:24.910Z,102698.59
2022-08-09T06:44:58.918Z,102698.22
2022-08-09T06:46:06.168Z,102700.47
2022-08-09T06:46:39.871Z,102699.78
2022-08-09T06:47:12.714Z,102707.00
2022-08-09T06:47:48.580Z,102705.22
2022-08-09T06:48:30.905Z,102697.84
2022-08-09T06:49:03.189Z,102698.56
2022-08-09T06:50:11.475Z,102695.44
2022-08-09T06:50:26.732Z,102693.56
2022-08-09T06:51:05.102Z,102704.25
2022-08-09T06:51:39.051Z,102703.50
2022-08-09T06:52:12.284Z,102706.88
2022-08-09T06:52:48.850Z,102709.34
2022-08-09T06:53:20.759Z,102711.41
2022-08-09T06:53:52.463Z,102710.41
2022-08-09T06:54:26.246Z,102709.78
2022-08-09T06:54:57.896Z,102716.09
2022-08-09T06:55:31.793Z,102714.78
2022-08-09T06:56:04.186Z,102722.53
2022-08-09T06:56:36.029Z,102720.69
2022-08-09T06:57:08.338Z,102723.72
2022-08-09T06:58:01.464Z,102718.88
2022-08-09T07:00:47.654Z,102715.56
2022-08-09T07:00:50.842Z,102706.31
2022-08-09T07:00:51.427Z,102711.88
2022-08-09T07:01:08.295Z,102706.56
2022-08-09T07:01:54.087Z,102710.25
2022-08-09T07:02:31.078Z,102705.59
2022-08-09T07:03:06.025Z,102709.94
2022-08-09T07:03:39.521Z,102710.72
2022-08-09T07:04:23.252Z,102714.19
2022-08-09T07:04:55.804Z,102715.06
2022-08-09T07:05:53.763Z,102714.94
2022-08-09T07:06:19.566Z,102724.72
2022-08-09T07:06:53.289Z,102720.94
2022-08-09T07:07:58.812Z,102733.06
2022-08-09T07:08:17.218Z,102727.44
2022-08-09T07:08:50.280Z,102726.91
2022-08-09T07:09:55.923Z,102730.56
2022-08-09T07:10:30.003Z,102731.00
2022-08-09T07:11:04.281Z,102727.31
2022-08-09T07:11:52.161Z,102733.72
2022-08-09T07:12:38.779Z,102739.41
2022-08-09T07:13:27.322Z,102735.03
2022-08-09T07:14:05.156Z,102734.38
2022-08-09T07:14:37.760Z,102727.56
2022-08-09T07:15:53.722Z,102732.97
2022-08-09T07:16:38.970Z,102739.06
2022-08-09T07:16:57.967Z,102730.81
2022-08-09T07:17:39.948Z,102723.72
2022-08-09T07:18:21.620Z,102722.41
2022-08-09T07:18:53.381Z,102727.56
2022-08-09T07:19:24.955Z,102720.44
2022-08-09T07:19:56.555Z,102724.50
2022-08-09T07:20:28.150Z,102722.50
2022-08-09T07:21:00.141Z,102724.06
2022-08-09T07:21:31.662Z,102726.56